Time;durP1;ratioP1;P1;durP2;ratioP2;P2;SDS_P1;SDS_P2;PMS_P1;PMS_P2;Temp;Humidity;BMP_temperature;BMP_pressure;BME280_temperature;BME280_humidity;BME280_pressure;Samples;Min_cycle;Max_cycle;Signal;HPM_P1;HPM_P2
2021/08/17 00:02:05;;;;;;;9.97;4.90;;;;;;;12.37;80.11;101818.91;5114831;28;20012;-36
2021/08/17 00:04:30;;;;;;;10.82;5.00;;;;;;;12.37;80.12;101818.91;5114480;28;20020;-35
2021/08/17 00:06:56;;;;;;;11.07;5.30;;;;;;;12.32;80.28;101810.59;5113933;28;20023;-35
2021/08/17 00:09:22;;;;;;;12.82;5.28;;;;;;;12.24;80.42;101804.59;5114513;28;20270;-35
2021/08/17 00:11:47;;;;;;;;;;;;;;;12.42;79.07;101820.13;5114866;28;20099;-35
2021/08/17 00:14:13;;;;;;;12.63;5.53;;;;;;;12.28;81.03;101820.19;5114261;28;20299;-36
2021/08/17 00:16:38;;;;;;;15.85;6.15;;;;;;;12.27;81.48;101820.44;5114505;28;20066;-35
2021/08/17 00:19:03;;;;;;;12.87;6.27;;;;;;;12.16;81.56;101805.69;5114573;28;20489;-36
2021/08/17 00:21:29;;;;;;;14.60;7.30;;;;;;;12.21;82.19;101813.19;5114310;28;20238;-35
2021/08/17 00:23:56;;;;;;;14.52;6.28;;;;;;;12.11;82.17;101795.50;5114422;28;20023;-35
2021/08/17 00:26:22;;;;;;;13.38;7.65;;;;;;;12.16;82.68;101807.56;5113628;28;20106;-36
2021/08/17 00:28:47;;;;;;;14.80;7.70;;;;;;;12.21;82.30;101815.88;5111973;28;20119;-35
2021/08/17 00:31:12;;;;;;;17.87;8.50;;;;;;;12.16;82.57;101804.88;5113887;28;20266;-35
2021/08/17 00:33:38;;;;;;;17.77;8.87;;;;;;;12.09;82.59;101789.44;5114789;28;20044;-35
2021/08/17 00:36:03;;;;;;;14.23;8.57;;;;;;;12.20;82.78;101804.22;5114409;28;20015;-35
2021/08/17 00:38:29;;;;;;;17.05;9.32;;;;;;;12.13;83.24;101797.97;5114215;28;20031;-36
2021/08/17 00:40:54;;;;;;;21.17;9.47;;;;;;;12.09;83.19;101789.44;5113887;28;20028;-35
2021/08/17 00:43:21;;;;;;;21.63;10.15;;;;;;;12.19;83.16;101801.69;5113797;28;20015;-36
2021/08/17 00:45:46;;;;;;;19.63;10.13;;;;;;;12.18;83.63;101797.31;5113753;28;20020;-35
2021/08/17 00:48:11;;;;;;;19.02;9.93;;;;;;;12.17;83.50;101795.69;5113645;28;20073;-36
2021/08/17 00:50:37;;;;;;;24.17;11.93;;;;;;;12.17;83.56;101792.97;5114399;28;20115;-36
2021/08/17 00:53:03;;;;;;;18.43;11.20;;;;;;;12.11;83.80;101778.41;5114362;28;20094;-35
2021/08/17 00:55:31;;;;;;;23.50;13.10;;;;;;;12.06;83.99;101778.22;5114374;28;20043;-36
2021/08/17 00:57:57;;;;;;;22.15;12.38;;;;;;;12.10;84.25;101777.56;5113428;28;20015;-35
2021/08/17 01:00:22;;;;;;;;;;;;;;;12.19;82.58;101778.13;5114670;28;20064;-35
2021/08/17 01:02:48;;;;;;;22.13;12.17;;;;;;;12.10;84.25;101783.00;5113120;28;19904;-35
2021/08/17 01:05:15;;;;;;;23.17;12.50;;;;;;;12.07;84.59;101778.00;5113967;28;20312;-35
2021/08/17 01:07:40;;;;;;;21.40;13.07;;;;;;;11.98;84.25;101763.03;5114028;28;20339;-35
2021/08/17 01:10:07;;;;;;;26.27;14.40;;;;;;;12.03;84.89;101781.38;5113083;28;20058;-35
2021/08/17 01:12:37;;;;;;;25.42;13.68;;;;;;;11.94;84.71;101764.53;5113285;28;20269;-35
2021/08/17 01:15:04;;;;;;;27.20;14.50;;;;;;;12.03;85.15;101782.19;5113663;28;20015;-35
2021/08/17 01:17:29;;;;;;;30.40;15.45;;;;;;;12.03;85.22;101784.06;5113553;28;20363;-35
2021/08/17 01:19:54;;;;;;;30.63;15.82;;;;;;;12.02;85.52;101790.56;5113292;28;20042;-36
2021/08/17 01:22:20;;;;;;;29.83;15.83;;;;;;;11.99;85.58;101786.38;5113595;28;20443;-36
2021/08/17 01:24:45;;;;;;;32.53;18.00;;;;;;;12.02;85.51;101785.97;5113339;28;20023;-33
2021/08/17 01:27:11;;;;;;;32.37;18.77;;;;;;;11.97;86.40;101774.13;5113971;28;20496;-34
2021/08/17 01:29:37;;;;;;;29.58;17.60;;;;;;;12.04;86.21;101791.97;5113146;28;20020;-33
2021/08/17 01:32:03;;;;;;;32.35;19.23;;;;;;;11.99;85.85;101794.50;5113630;28;20040;-33
2021/08/17 01:34:28;;;;;;;32.08;18.88;;;;;;;12.03;86.80;101798.47;5113142;28;20474;-33
2021/08/17 01:36:53;;;;;;;39.17;20.57;;;;;;;11.94;87.07;101788.91;5112901;28;20030;-33
2021/08/17 01:39:19;;;;;;;35.67;19.53;;;;;;;12.03;87.13;101795.75;5113132;28;20032;-33
2021/08/17 01:41:45;;;;;;;36.40;20.93;;;;;;;12.03;87.15;101801.16;5113211;28;20705;-33
2021/08/17 01:44:14;;;;;;;34.78;21.10;;;;;;;12.04;87.25;101793.88;5113043;28;20340;-33
2021/08/17 01:46:43;;;;;;;39.03;20.52;;;;;;;12.07;87.36;101798.88;5113701;28;20022;-33
2021/08/17 01:49:10;;;;;;;39.35;20.90;;;;;;;12.03;87.40;101789.50;5113018;28;20023;-33
2021/08/17 01:51:36;;;;;;;37.45;20.95;;;;;;;12.07;87.26;101801.56;5113695;28;20423;-34
2021/08/17 01:54:05;;;;;;;39.93;21.00;;;;;;;12.02;87.63;101787.84;5113209;28;20023;-33
2021/08/17 01:56:31;;;;;;;35.65;21.20;;;;;;;12.03;87.45;101795.75;5113423;28;20027;-33
2021/08/17 01:58:57;;;;;;;37.35;20.75;;;;;;;11.99;87.19;101777.41;5112635;28;20035;-33
2021/08/17 02:01:22;;;;;;;37.53;20.85;;;;;;;12.08;87.24;101795.91;5113465;28;20428;-33
2021/08/17 02:03:48;;;;;;;37.13;20.05;;;;;;;12.12;87.69;101807.19;5113220;28;20119;-33
2021/08/17 02:06:14;;;;;;;37.10;21.70;;;;;;;12.06;87.66;101806.16;5113236;28;20020;-33
2021/08/17 02:08:40;;;;;;;44.58;23.15;;;;;;;12.00;87.76;101787.22;5112772;28;20420;-33
2021/08/17 02:11:05;;;;;;;41.45;22.42;;;;;;;11.95;88.17;101782.44;5113305;28;20054;-33
2021/08/17 02:13:31;;;;;;;43.83;24.33;;;;;;;12.08;88.30;101797.81;5111407;28;20460;-33
2021/08/17 02:15:59;;;;;;;44.25;22.25;;;;;;;12.05;88.33;101796.38;5115391;28;20012;-33
2021/08/17 02:18:24;;;;;;;42.63;23.38;;;;;;;11.99;88.44;101783.66;5116055;28;20028;-33
2021/08/17 02:20:50;;;;;;;40.38;24.05;;;;;;;12.11;88.85;101803.63;5117235;28;20110;-33
2021/08/17 02:23:15;;;;;;;45.47;23.77;;;;;;;12.12;88.53;101799.03;5116619;28;20152;-34
2021/08/17 02:25:40;;;;;;;46.77;24.03;;;;;;;12.19;88.76;101807.13;5116711;28;20603;-33
2021/08/17 02:28:06;;;;;;;51.43;25.43;;;;;;;12.22;89.07;101803.97;5116275;28;20024;-33
2021/08/17 02:30:32;;;;;;;48.28;24.85;;;;;;;12.13;88.67;101783.59;5116304;28;20388;-33
2021/08/17 02:32:57;;;;;;;46.30;25.45;;;;;;;12.24;88.83;101802.69;5116558;28;20043;-34
2021/08/17 02:35:22;;;;;;;41.13;23.87;;;;;;;12.28;89.09;101801.22;5116513;28;20077;-34
2021/08/17 02:37:48;;;;;;;48.33;25.10;;;;;;;12.29;88.50;101804.75;5116058;28;20272;-33
2021/08/17 02:40:14;;;;;;;47.65;23.90;;;;;;;12.24;88.70;101791.84;5116715;28;20250;-33
2021/08/17 02:42:40;;;;;;;45.53;24.50;;;;;;;12.29;88.99;101805.59;5116208;28;20221;-33
2021/08/17 02:45:06;;;;;;;;;;;;;;;12.37;87.90;101808.03;5117279;28;20016;-33
2021/08/17 02:47:33;;;;;;;47.03;23.55;;;;;;;12.30;88.89;101799.13;5116448;28;19907;-33
2021/08/17 02:49:59;;;;;;;52.50;26.20;;;;;;;12.22;89.50;101787.72;5116142;28;20099;-33
2021/08/17 02:52:24;;;;;;;49.03;25.77;;;;;;;12.37;89.42;101805.34;5116387;28;20392;-33
2021/08/17 02:54:50;;;;;;;51.92;25.73;;;;;;;12.34;89.14;101808.47;5115797;28;20023;-33
2021/08/17 02:57:16;;;;;;;;;;;;;;;12.43;87.88;101803.63;5116210;28;20038;-33
2021/08/17 02:59:41;;;;;;;44.55;24.60;;;;;;;12.40;89.24;101805.97;5115955;28;19903;-33
2021/08/17 03:02:06;;;;;;;52.50;25.67;;;;;;;12.29;89.52;101794.75;5115467;27;20027;-33
2021/08/17 03:04:32;;;;;;;51.93;27.17;;;;;;;12.31;89.60;101784.53;5115315;28;20016;-33
2021/08/17 03:06:57;;;;;;;48.63;26.67;;;;;;;12.42;89.53;101807.38;5115833;28;20023;-33
2021/08/17 03:09:23;;;;;;;50.83;25.67;;;;;;;12.35;90.05;101793.06;5115619;28;20581;-33
2021/08/17 03:11:48;;;;;;;53.97;27.63;;;;;;;12.44;90.21;101807.97;5115337;28;20459;-33
2021/08/17 03:14:13;;;;;;;48.37;26.47;;;;;;;12.44;89.99;101802.56;5116235;28;20447;-33
2021/08/17 03:16:39;;;;;;;49.85;26.30;;;;;;;12.43;90.14;101803.63;5115711;28;20024;-33
2021/08/17 03:19:06;;;;;;;49.47;25.55;;;;;;;12.42;89.90;101812.81;5116054;28;20038;-33
2021/08/17 03:21:33;;;;;;;48.78;26.85;;;;;;;12.44;90.43;101805.28;5115696;28;20106;-33
2021/08/17 03:23:58;;;;;;;58.92;28.83;;;;;;;12.43;90.05;101800.91;5115168;28;20026;-33
2021/08/17 03:26:24;;;;;;;51.15;25.83;;;;;;;12.42;90.09;101796.53;5115117;28;20036;-33
2021/08/17 03:28:49;;;;;;;44.40;25.40;;;;;;;12.44;90.35;101797.13;5115215;28;20024;-33
2021/08/17 03:31:14;;;;;;;55.40;27.63;;;;;;;12.47;90.19;101796.69;5115231;28;20020;-33
2021/08/17 03:33:40;;;;;;;48.17;26.00;;;;;;;12.40;90.39;101778.84;5115005;28;20067;-33
2021/08/17 03:36:05;;;;;;;55.47;28.30;;;;;;;12.48;90.55;101798.38;5115427;28;20040;-33
2021/08/17 03:38:32;;;;;;;53.20;28.17;;;;;;;12.41;90.48;101778.59;5115112;28;20034;-34
2021/08/17 03:40:58;;;;;;;55.30;26.88;;;;;;;12.51;90.64;101792.50;5115241;28;20242;-34
2021/08/17 03:43:24;;;;;;;48.50;25.60;;;;;;;12.40;90.36;101782.38;5114579;27;20019;-34
2021/08/17 03:45:50;;;;;;;52.92;27.42;;;;;;;12.33;90.41;101759.88;5114809;28;20031;-34
2021/08/17 03:48:15;;;;;;;49.13;27.67;;;;;;;12.43;90.55;101778.38;5114855;28;20024;-35
2021/08/17 03:50:41;;;;;;;46.77;26.43;;;;;;;12.48;90.53;101781.25;5114980;28;20027;-35
2021/08/17 03:53:06;;;;;;;49.42;26.67;;;;;;;12.44;90.54;101775.44;5114461;28;20031;-35
2021/08/17 03:55:31;;;;;;;49.80;26.97;;;;;;;12.52;90.60;101787.91;5114992;28;20066;-35
2021/08/17 03:57:57;;;;;;;52.93;28.00;;;;;;;12.51;90.39;101792.50;5114718;28;20261;-35
2021/08/17 04:00:28;;;;;;;50.23;26.23;;;;;;;12.53;90.57;101784.13;5114707;28;20485;-35
2021/08/17 04:02:55;;;;;;;49.83;26.23;;;;;;;12.50;90.92;101779.16;5115184;28;20020;-35
2021/08/17 04:05:21;;;;;;;52.15;27.98;;;;;;;12.42;90.42;101761.28;5114874;28;20027;-35
2021/08/17 04:07:47;;;;;;;49.00;26.60;;;;;;;12.49;90.35;101775.63;5114869;28;20030;-35
2021/08/17 04:10:12;;;;;;;52.87;27.60;;;;;;;12.53;90.54;101789.56;5114214;28;20015;-35
2021/08/17 04:12:38;;;;;;;53.37;28.13;;;;;;;12.45;90.57;101781.72;5114134;28;20322;-35
2021/08/17 04:15:07;;;;;;;50.67;25.90;;;;;;;12.47;90.65;101785.84;5114337;28;20023;-35
2021/08/17 04:17:33;;;;;;;53.40;26.88;;;;;;;12.50;91.07;101795.44;5114118;28;20032;-35
2021/08/17 04:19:58;;;;;;;51.33;27.10;;;;;;;12.38;90.87;101779.84;5114534;28;20016;-35
2021/08/17 04:22:24;;;;;;;52.15;25.20;;;;;;;12.32;91.05;101766.38;5114549;28;20027;-35
2021/08/17 04:24:50;;;;;;;53.47;27.70;;;;;;;12.47;90.86;101796.69;5114454;28;20046;-35
2021/08/17 04:27:15;;;;;;;50.83;26.05;;;;;;;12.39;90.47;101786.13;5114669;28;20051;-35
2021/08/17 04:29:40;;;;;;;50.83;27.23;;;;;;;12.46;91.22;101797.75;5113812;28;20023;-35
2021/08/17 04:32:06;;;;;;;54.10;26.42;;;;;;;12.46;90.90;101796.94;5112753;28;20288;-35
2021/08/17 04:34:33;;;;;;;52.72;27.52;;;;;;;12.39;91.35;101788.81;5113668;28;20055;-35
2021/08/17 04:36:59;;;;;;;53.88;28.42;;;;;;;12.46;91.27;101795.06;5113655;28;20035;-35
2021/08/17 04:39:24;;;;;;;53.90;28.42;;;;;;;12.46;91.32;101800.47;5113481;28;20023;-35
2021/08/17 04:41:50;;;;;;;51.97;26.67;;;;;;;12.50;91.83;101800.88;5114239;27;20028;-35
2021/08/17 04:44:15;;;;;;;50.00;25.33;;;;;;;12.49;91.25;101801.91;5113804;28;20111;-35
2021/08/17 04:46:40;;;;;;;53.87;26.43;;;;;;;12.49;91.52;101802.75;5113801;28;20016;-35
2021/08/17 04:49:07;;;;;;;55.17;28.63;;;;;;;12.37;91.44;101780.91;5113682;28;20023;-35
2021/08/17 04:51:33;;;;;;;51.78;26.10;;;;;;;12.50;91.58;101804.41;5113759;28;20347;-35
2021/08/17 04:53:59;;;;;;;52.67;27.40;;;;;;;12.52;91.16;101802.31;5113653;28;20019;-35
2021/08/17 04:56:24;;;;;;;55.30;28.03;;;;;;;12.51;91.69;101800.66;5113458;28;20023;-35
2021/08/17 04:58:51;;;;;;;52.30;28.43;;;;;;;12.38;91.54;101779.84;5113375;28;20297;-35
2021/08/17 05:01:16;;;;;;;52.78;26.30;;;;;;;12.49;91.28;101794.63;5113870;28;20145;-35
2021/08/17 05:03:42;;;;;;;54.38;25.98;;;;;;;12.52;91.50;101809.59;5113629;28;20107;-35
2021/08/17 05:06:07;;;;;;;49.10;26.50;;;;;;;12.52;91.70;101804.19;5113267;28;20061;-35
2021/08/17 05:08:32;;;;;;;51.63;27.50;;;;;;;12.52;91.25;101813.16;5113152;28;20019;-35
2021/08/17 05:10:58;;;;;;;51.30;25.40;;;;;;;12.51;91.06;101806.06;5114347;28;20496;-35
2021/08/17 05:13:23;;;;;;;45.23;25.03;;;;;;;12.50;91.27;101807.13;5113208;28;20051;-35
2021/08/17 05:15:48;;;;;;;49.85;27.65;;;;;;;12.42;91.89;101798.41;5113657;28;20081;-35
2021/08/17 05:18:14;;;;;;;52.00;25.90;;;;;;;12.47;91.69;101812.97;5113159;28;20134;-35
2021/08/17 05:20:39;;;;;;;52.87;25.67;;;;;;;12.51;91.81;101821.53;5113676;28;20077;-35
2021/08/17 05:23:04;;;;;;;55.33;25.33;;;;;;;12.51;91.96;101819.63;5113066;28;20084;-35
2021/08/17 05:25:30;;;;;;;47.37;25.30;;;;;;;12.52;92.04;101826.72;5113590;28;20732;-35
2021/08/17 05:27:55;;;;;;;51.30;24.70;;;;;;;12.43;91.92;101806.31;5113795;28;20103;-35
2021/08/17 05:30:21;;;;;;;51.20;26.07;;;;;;;12.51;92.16;101816.09;5113438;28;20027;-35
2021/08/17 05:32:48;;;;;;;52.30;25.63;;;;;;;12.55;92.06;101820.88;5113502;28;20285;-35
2021/08/17 05:35:13;;;;;;;49.10;25.27;;;;;;;12.69;91.81;101826.16;5113837;28;20024;-35
2021/08/17 05:37:38;;;;;;;51.70;24.83;;;;;;;12.75;91.69;101836.16;5113256;28;20419;-35
2021/08/17 05:40:06;;;;;;;51.77;25.10;;;;;;;12.77;91.33;101834.03;5113794;28;20041;-35
2021/08/17 05:42:31;;;;;;;46.65;23.42;;;;;;;12.79;92.12;101831.97;5112822;28;20334;-35
2021/08/17 05:44:57;;;;;;;45.20;23.05;;;;;;;12.78;91.44;101822.13;5112875;28;20027;-35
2021/08/17 05:47:22;;;;;;;49.10;25.20;;;;;;;12.90;91.25;101831.22;5113331;28;20093;-35
2021/08/17 05:49:48;;;;;;;48.60;24.53;;;;;;;12.87;91.18;101810.75;5115880;28;20080;-35
2021/08/17 05:52:13;;;;;;;;;;;;;;;12.99;90.36;101816.31;5117849;28;20245;-35
2021/08/17 05:54:39;;;;;;;45.03;22.38;;;;;;;12.99;90.82;101824.47;5117270;28;20370;-35
2021/08/17 05:57:05;;;;;;;42.58;22.45;;;;;;;12.99;90.95;101815.50;5117027;28;20427;-36
2021/08/17 05:59:31;;;;;;;44.63;23.42;;;;;;;12.89;90.87;101802.41;5116964;28;20023;-35
2021/08/17 06:01:59;;;;;;;45.08;22.10;;;;;;;13.04;91.34;101812.94;5116950;28;20016;-35
2021/08/17 06:04:26;;;;;;;45.00;22.27;;;;;;;13.10;90.86;101804.72;5116815;28;20102;-35
2021/08/17 06:06:51;;;;;;;46.53;22.77;;;;;;;12.98;90.87;101776.66;5117076;27;20086;-35
2021/08/17 06:09:19;;;;;;;41.65;21.92;;;;;;;13.21;90.65;101808.56;5117137;28;20020;-35
2021/08/17 06:11:45;;;;;;;40.47;20.77;;;;;;;13.23;90.76;101806.50;5116755;28;20139;-35
2021/08/17 06:14:10;;;;;;;;;;;;;;;13.35;89.73;101814.72;5117499;28;20019;-35
2021/08/17 06:16:35;;;;;;;39.95;21.15;;;;;;;13.18;90.29;101781.88;5117457;28;19926;-35
2021/08/17 06:19:01;;;;;;;38.77;19.83;;;;;;;13.37;90.50;101797.16;5116420;28;20022;-35
2021/08/17 06:21:26;;;;;;;37.93;21.73;;;;;;;13.39;90.58;101789.59;5116675;28;20035;-35
2021/08/17 06:23:52;;;;;;;40.55;21.45;;;;;;;13.34;90.79;101781.28;5116217;28;20265;-35
2021/08/17 06:26:18;;;;;;;45.33;21.85;;;;;;;13.38;90.52;101776.25;5116418;28;20023;-35
2021/08/17 06:28:44;;;;;;;43.42;22.92;;;;;;;13.50;90.76;101796.16;5116357;28;20020;-35
2021/08/17 06:31:10;;;;;;;40.88;21.58;;;;;;;13.48;90.10;101781.16;5117240;28;20467;-36
2021/08/17 06:33:35;;;;;;;37.60;21.67;;;;;;;13.61;90.14;101800.81;5116870;28;20044;-35
2021/08/17 06:36:00;;;;;;;43.83;21.17;;;;;;;13.70;90.13;101797.78;5116638;28;20452;-35
2021/08/17 06:38:26;;;;;;;37.83;21.47;;;;;;;13.72;90.24;101791.09;5116578;27;20031;-35
2021/08/17 06:40:51;;;;;;;41.47;19.83;;;;;;;13.78;89.98;101792.06;5116409;28;20439;-35
2021/08/17 06:43:16;;;;;;;38.95;20.13;;;;;;;13.72;89.38;101765.78;5116025;28;20020;-35
2021/08/17 06:45:42;;;;;;;39.30;19.63;;;;;;;13.90;88.97;101791.03;5116345;28;20102;-35
2021/08/17 06:48:08;;;;;;;39.35;20.25;;;;;;;13.94;89.32;101775.09;5116372;28;20019;-35
2021/08/17 06:50:33;;;;;;;39.55;20.10;;;;;;;13.97;88.78;101780.09;5116028;28;20035;-35
2021/08/17 06:52:59;;;;;;;41.33;20.17;;;;;;;14.00;88.97;101784.22;5115880;28;20023;-35
2021/08/17 06:55:24;;;;;;;42.53;21.13;;;;;;;14.07;89.01;101791.22;5116186;28;20058;-35
2021/08/17 06:57:49;;;;;;;41.80;21.08;;;;;;;14.11;88.25;101803.31;5115873;28;20034;-35
2021/08/17 07:00:15;;;;;;;41.30;20.27;;;;;;;14.14;88.04;101797.38;5115773;28;20039;-35
2021/08/17 07:02:40;;;;;;;46.60;20.95;;;;;;;14.24;88.16;101805.00;5115925;28;20020;-35
2021/08/17 07:05:06;;;;;;;41.77;19.63;;;;;;;14.27;88.04;101809.16;5115924;28;20135;-35
2021/08/17 07:07:32;;;;;;;38.88;19.77;;;;;;;14.14;87.87;101781.06;5115460;28;20076;-35
2021/08/17 07:09:58;;;;;;;37.70;20.30;;;;;;;14.34;87.20;101815.31;5115756;28;20035;-35
2021/08/17 07:12:23;;;;;;;37.40;19.95;;;;;;;14.39;87.52;101812.72;5116289;28;20024;-35
2021/08/17 07:14:50;;;;;;;39.13;20.50;;;;;;;14.44;86.79;101807.41;5115898;28;20027;-35
2021/08/17 07:17:16;;;;;;;35.25;18.77;;;;;;;14.54;86.75;101802.28;5115281;28;20046;-35
2021/08/17 07:19:41;;;;;;;;;;;;;;;14.68;86.55;101808.31;5115638;28;20015;-35
2021/08/17 07:22:06;;;;;;;37.83;19.90;;;;;;;14.67;86.39;101810.22;5115252;28;19911;-35
2021/08/17 07:24:32;;;;;;;40.90;20.87;;;;;;;14.62;86.43;101799.19;5115199;28;20318;-35
2021/08/17 07:26:58;;;;;;;38.63;19.88;;;;;;;14.73;86.09;101826.66;5115416;28;20161;-35
2021/08/17 07:29:23;;;;;;;38.65;20.63;;;;;;;14.81;85.84;101831.78;5115167;28;20186;-35
2021/08/17 07:31:49;;;;;;;36.33;20.23;;;;;;;14.81;85.70;101819.00;5115176;28;20030;-35
2021/08/17 07:34:14;;;;;;;41.10;21.58;;;;;;;14.92;85.14;101820.06;5115853;28;20024;-35
2021/08/17 07:36:40;;;;;;;34.88;19.80;;;;;;;14.80;85.62;101781.13;5115300;28;20371;-35
2021/08/17 07:39:08;;;;;;;33.63;18.98;;;;;;;14.99;85.26;101800.91;5115150;28;20452;-35
2021/08/17 07:41:35;;;;;;;31.25;18.85;;;;;;;14.96;84.86;101788.56;5115447;28;20020;-35
2021/08/17 07:44:00;;;;;;;34.65;20.00;;;;;;;14.90;84.54;101789.53;5115291;28;20019;-35
2021/08/17 07:46:26;;;;;;;36.47;20.60;;;;;;;14.87;84.99;101781.81;5115651;28;20069;-35
2021/08/17 07:48:52;;;;;;;35.20;19.13;;;;;;;14.99;85.02;101799.00;5114826;28;20110;-35
2021/08/17 07:51:19;;;;;;;40.53;18.95;;;;;;;15.05;84.70;101781.69;5115204;28;20028;-35
2021/08/17 07:53:45;;;;;;;34.97;19.00;;;;;;;15.16;83.81;101793.63;5115192;28;20102;-35
2021/08/17 07:56:10;;;;;;;30.83;17.52;;;;;;;15.28;83.38;101788.19;5115665;28;20422;-35
2021/08/17 07:58:36;;;;;;;31.25;18.30;;;;;;;15.31;82.89;101791.25;5115216;28;20103;-35
2021/08/17 08:01:02;;;;;;;32.63;17.05;;;;;;;15.28;82.41;101782.75;5115319;28;20024;-35
2021/08/17 08:03:27;;;;;;;32.30;17.25;;;;;;;15.32;83.32;101789.34;5114865;28;20024;-35
2021/08/17 08:05:52;;;;;;;29.60;16.58;;;;;;;15.31;82.81;101787.69;5115576;28;20019;-35
2021/08/17 08:08:18;;;;;;;29.67;16.77;;;;;;;15.31;82.95;101771.34;5114729;28;20118;-35
2021/08/17 08:10:43;;;;;;;31.15;16.73;;;;;;;15.32;82.45;101773.81;5115712;27;20329;-35
2021/08/17 08:13:08;;;;;;;29.67;15.98;;;;;;;15.45;82.31;101787.19;5113445;28;20023;-35
2021/08/17 08:15:34;;;;;;;33.50;16.10;;;;;;;15.46;82.14;101774.38;5114939;28;20031;-35
2021/08/17 08:17:59;;;;;;;;;;;;;;;15.63;81.81;101782.66;5115507;28;20114;-35
2021/08/17 08:20:25;;;;;;;26.40;15.73;;;;;;;15.66;82.17;101776.72;5114674;27;19903;-35
2021/08/17 08:22:50;;;;;;;29.88;16.00;;;;;;;15.90;81.58;101788.38;5114473;28;20080;-35
2021/08/17 08:25:16;;;;;;;29.67;15.65;;;;;;;16.20;80.93;101794.44;5114465;28;20016;-35
2021/08/17 08:27:42;;;;;;;;;;;;;;;16.43;80.47;101798.09;5115469;28;20030;-35
2021/08/17 08:30:08;;;;;;;28.13;15.20;;;;;;;16.22;79.83;101759.53;5114391;28;19923;-36
2021/08/17 08:32:34;;;;;;;;;;;;;;;16.46;79.94;101781.22;5115374;28;20039;-40
2021/08/17 08:35:00;;;;;;;26.97;14.53;;;;;;;16.26;78.84;101775.41;5114620;28;20002;-35
2021/08/17 08:37:25;;;;;;;24.92;14.35;;;;;;;16.19;79.14;101781.00;5114586;28;20709;-35
2021/08/17 08:39:52;;;;;;;28.15;14.90;;;;;;;16.05;78.53;101779.66;5114471;28;20019;-35
2021/08/17 08:42:20;;;;;;;24.40;14.27;;;;;;;15.95;79.52;101791.22;5113937;28;20216;-35
2021/08/17 08:44:45;;;;;;;23.92;14.07;;;;;;;15.81;78.68;101773.47;5113759;28;20026;-35
2021/08/17 08:47:10;;;;;;;24.30;13.47;;;;;;;15.64;79.38;101746.16;5113922;28;20163;-35
2021/08/17 08:49:40;;;;;;;21.33;12.57;;;;;;;15.82;79.14;101778.72;5114024;28;20265;-35
2021/08/17 08:52:06;;;;;;;20.25;12.95;;;;;;;15.75;78.99;101752.66;5114669;28;20088;-35
2021/08/17 08:54:31;;;;;;;22.17;12.93;;;;;;;16.03;79.03;101776.38;5113784;28;20051;-36
2021/08/17 08:56:56;;;;;;;20.73;12.38;;;;;;;16.11;78.50;101778.69;5114583;28;20031;-35
2021/08/17 08:59:22;;;;;;;19.07;12.00;;;;;;;16.13;77.62;101782.81;5113947;28;20030;-35
2021/08/17 09:01:50;;;;;;;21.65;11.75;;;;;;;16.08;76.11;101780.00;5114258;28;20249;-35
2021/08/17 09:04:16;;;;;;;18.02;10.95;;;;;;;16.07;76.24;101783.81;5114544;28;20043;-35
2021/08/17 09:06:51;;;;;;;17.05;11.48;;;;;;;16.07;77.50;101786.53;5114121;28;20335;-35
2021/08/17 09:09:17;;;;;;;18.80;10.63;;;;;;;16.02;76.91;101781.00;5114134;28;20107;-35
2021/08/17 09:11:48;;;;;;;18.80;10.82;;;;;;;15.96;76.80;101801.06;5114121;28;20507;-35
2021/08/17 09:14:26;;;;;;;22.38;10.68;;;;;;;15.83;76.62;101788.53;5113740;28;20052;-35
2021/08/17 09:16:57;;;;;;;17.73;10.43;;;;;;;15.89;77.26;101819.47;5113776;28;20110;-35
2021/08/17 09:19:23;;;;;;;17.08;9.68;;;;;;;15.79;77.03;101809.19;5113731;28;20035;-35
2021/08/17 09:21:48;;;;;;;17.77;10.00;;;;;;;15.82;76.62;101810.63;5113971;28;20027;-35
2021/08/17 09:24:18;;;;;;;17.80;9.82;;;;;;;15.83;76.95;101820.44;5115259;28;20305;-35
2021/08/17 09:26:46;;;;;;;17.33;9.75;;;;;;;15.82;76.84;101819.63;5117593;27;20027;-35
2021/08/17 09:29:21;;;;;;;18.05;10.38;;;;;;;15.90;76.88;101830.13;5117889;28;20103;-35
2021/08/17 09:31:47;;;;;;;16.85;9.35;;;;;;;15.95;75.33;101834.84;5117945;28;20027;-35
2021/08/17 09:34:12;;;;;;;14.38;8.50;;;;;;;15.98;75.18;101828.09;5118657;28;20024;-35
2021/08/17 09:36:39;;;;;;;;;;;;;;;16.03;75.83;101837.22;5118491;28;20019;-35
2021/08/17 09:39:05;;;;;;;14.68;8.32;;;;;;;15.92;74.87;101819.00;5117491;28;19914;-35
2021/08/17 09:41:30;;;;;;;16.40;8.65;;;;;;;15.87;75.08;101808.81;5118341;28;20024;-35
2021/08/17 09:44:03;;;;;;;;;;;;;;;15.95;75.89;101805.69;5118270;28;20038;-35
2021/08/17 09:46:36;;;;;;;12.55;7.72;;;;;;;15.84;75.48;101800.28;5117708;28;19911;-35
2021/08/17 09:49:18;;;;;;;13.77;8.27;;;;;;;15.77;75.52;101784.06;5117872;28;20046;-35
2021/08/17 09:51:44;;;;;;;13.10;7.78;;;;;;;15.84;75.93;101789.38;5117781;28;20388;-35
2021/08/17 09:54:15;;;;;;;14.07;8.43;;;;;;;15.80;75.98;101799.09;5117458;28;20031;-35
2021/08/17 09:56:41;;;;;;;16.40;7.78;;;;;;;15.79;76.26;101794.72;5117858;28;20024;-35
2021/08/17 09:59:07;;;;;;;12.63;7.80;;;;;;;15.76;76.10;101789.75;5117668;28;20038;-35
2021/08/17 10:01:32;;;;;;;15.82;9.07;;;;;;;15.75;76.35;101799.00;5117592;28;20028;-35
2021/08/17 10:03:58;;;;;;;;;;;;;;;15.83;76.71;101787.72;5117446;28;20456;-35
2021/08/17 10:06:23;;;;;;;15.95;8.48;;;;;;;15.70;76.03;101788.81;5117266;28;20264;-35
2021/08/17 10:08:51;;;;;;;15.85;9.10;;;;;;;15.61;76.47;101771.16;5116766;28;20475;-35
2021/08/17 10:11:18;;;;;;;18.63;9.50;;;;;;;15.69;76.57;101785.25;5116903;28;20020;-35
2021/08/17 10:13:45;;;;;;;15.80;8.75;;;;;;;15.65;76.45;101784.09;5117299;28;20031;-35
2021/08/17 10:16:10;;;;;;;15.82;8.05;;;;;;;15.61;76.39;101780.16;5117191;28;20020;-35
2021/08/17 10:18:37;;;;;;;13.93;8.27;;;;;;;15.60;76.65;101785.84;5117118;28;20019;-35
2021/08/17 10:21:03;;;;;;;13.40;7.97;;;;;;;15.55;76.19;101797.47;5117443;28;20024;-35
2021/08/17 10:23:29;;;;;;;;;;;;;;;15.62;76.73;101791.91;5117775;28;20016;-35
2021/08/17 10:25:56;;;;;;;14.43;8.20;;;;;;;15.44;77.12;101779.28;5117588;28;19907;-35
2021/08/17 10:28:41;;;;;;;13.48;8.07;;;;;;;15.49;77.41;101793.00;5116971;28;20054;-35
2021/08/17 10:31:12;;;;;;;15.38;9.05;;;;;;;15.37;77.68;101779.41;5117567;28;20028;-35
2021/08/17 10:33:52;;;;;;;13.63;7.47;;;;;;;15.45;77.76;101789.09;5116889;28;20380;-35
2021/08/17 10:36:36;;;;;;;15.20;8.23;;;;;;;15.44;78.07;101774.63;5115460;27;20421;-36
2021/08/17 10:39:26;;;;;;;17.88;8.80;;;;;;;15.39;77.82;101760.09;5116787;28;20022;-35
2021/08/17 10:41:53;;;;;;;15.32;8.90;;;;;;;15.38;78.92;101750.25;5105305;28;20118;-35
2021/08/17 10:44:24;;;;;;;14.77;8.35;;;;;;;15.41;78.87;101753.31;5116409;28;20028;-35
2021/08/17 10:46:50;;;;;;;14.15;8.70;;;;;;;15.39;78.26;101754.63;5116308;28;20095;-35
2021/08/17 10:49:30;;;;;;;13.05;8.05;;;;;;;15.45;80.55;101748.22;5116099;28;20030;-35
2021/08/17 10:52:00;;;;;;;17.48;9.32;;;;;;;15.49;79.21;101754.00;5116834;28;20027;-35
2021/08/17 10:54:26;;;;;;;13.50;8.50;;;;;;;15.61;79.93;101757.53;5116964;28;20051;-35
2021/08/17 10:56:51;;;;;;;17.48;8.55;;;;;;;15.63;78.88;101756.25;5116840;28;20119;-35
2021/08/17 10:59:47;;;;;;;13.73;8.00;;;;;;;15.75;78.54;101760.81;5114681;28;20542;-35
2021/08/17 11:02:13;;;;;;;11.60;7.70;;;;;;;15.67;77.95;101743.78;5033547;28;20041;-35
2021/08/17 11:04:45;;;;;;;;;;;;;;;15.89;77.84;101764.91;5033574;28;20044;-35
2021/08/17 11:07:27;;;;;;;14.18;8.43;;;;;;;15.80;78.05;101745.38;5033724;28;20421;-35
2021/08/17 11:09:54;;;;;;;15.95;8.07;;;;;;;15.79;76.61;101737.44;5033050;28;20049;-35
2021/08/17 11:12:20;;;;;;;16.83;8.65;;;;;;;15.88;76.04;101752.34;5033245;28;20117;-35